Time;durP1;ratioP1;P1;durP2;ratioP2;P2;SDS_P1;SDS_P2;PMS_P1;PMS_P2;Temp;Humidity;BMP_temperature;BMP_pressure;BME280_temperature;BME280_humidity;BME280_pressure;Samples;Min_cycle;Max_cycle;Signal;HPM_P1;HPM_P2
2022/07/09 00:01:02;;;;;;;6.70;3.08;;;;;;;18.07;71.15;102071.28;5041683;28;20068;-67
2022/07/09 00:03:29;;;;;;;7.82;3.28;;;;;;;17.90;72.11;102074.16;5043772;28;20076;-67
2022/07/09 00:05:55;;;;;;;5.82;2.90;;;;;;;17.75;72.67;102077.72;5017870;28;20183;-67
2022/07/09 00:08:21;;;;;;;10.13;3.63;;;;;;;17.56;73.19;102075.28;5026475;28;20073;-67
2022/07/09 00:10:48;;;;;;;5.57;3.13;;;;;;;17.37;74.22;102075.53;5026162;28;20537;-67
2022/07/09 00:13:16;;;;;;;7.15;3.17;;;;;;;17.64;73.11;102075.72;5024516;28;20111;-67
2022/07/09 00:15:42;;;;;;;8.73;2.90;;;;;;;17.86;72.13;102077.94;5020343;28;20053;-67
2022/07/09 00:18:09;;;;;;;7.70;3.53;;;;;;;17.85;71.79;102077.06;5007020;28;20049;-67
2022/07/09 00:20:35;;;;;;;4.43;3.00;;;;;;;17.92;71.32;102072.28;5004202;28;20128;-67
2022/07/09 00:23:02;;;;;;;7.03;2.83;;;;;;;17.92;71.35;102064.31;5005019;28;20132;-67
2022/07/09 00:25:28;;;;;;;7.63;3.50;;;;;;;18.03;70.94;102067.16;5026440;28;20509;-67
2022/07/09 00:27:54;;;;;;;9.50;3.50;;;;;;;17.86;71.52;102078.78;5018923;28;20077;-67
2022/07/09 00:30:22;;;;;;;9.43;3.20;;;;;;;17.79;71.31;102079.25;5021727;28;20101;-67
2022/07/09 00:32:48;;;;;;;8.02;3.20;;;;;;;17.71;72.14;102082.38;5026696;28;20072;-67
2022/07/09 00:35:15;;;;;;;8.00;3.35;;;;;;;17.57;72.40;102077.03;5016103;28;20073;-67
2022/07/09 00:37:41;;;;;;;6.82;3.03;;;;;;;17.59;72.03;102084.94;5024936;28;20057;-67
2022/07/09 00:40:08;;;;;;;6.32;3.17;;;;;;;17.59;72.61;102085.75;5024101;28;20073;-67
2022/07/09 00:42:34;;;;;;;5.80;3.40;;;;;;;17.50;72.53;102084.47;5024840;28;20579;-67
2022/07/09 00:45:01;;;;;;;8.18;3.35;;;;;;;17.45;73.26;102088.34;5013842;28;20130;-67
2022/07/09 00:47:28;;;;;;;11.77;4.10;;;;;;;17.16;74.75;102089.19;5008701;28;20070;-67
2022/07/09 00:49:55;;;;;;;5.70;3.58;;;;;;;17.18;75.62;102084.66;5014175;28;20354;-67
2022/07/09 00:52:22;;;;;;;9.63;3.47;;;;;;;17.20;75.19;102088.94;5017255;28;20409;-67
2022/07/09 00:54:49;;;;;;;8.45;3.40;;;;;;;17.22;74.91;102081.72;5004916;28;20050;-67
2022/07/09 00:57:17;;;;;;;10.20;3.60;;;;;;;17.36;74.43;102081.81;5012949;28;20076;-67
2022/07/09 00:59:43;;;;;;;7.82;3.78;;;;;;;17.43;74.32;102087.59;5017333;28;20099;-67
2022/07/09 01:02:10;;;;;;;11.38;4.60;;;;;;;17.28;74.98;102076.09;5026621;28;20061;-67
2022/07/09 01:04:39;;;;;;;9.73;3.88;;;;;;;17.38;73.91;102079.03;5021109;28;20519;-67
2022/07/09 01:07:05;;;;;;;8.95;3.90;;;;;;;17.25;74.91;102073.63;5006147;28;20050;-68
2022/07/09 01:09:32;;;;;;;7.55;3.40;;;;;;;17.34;74.48;102075.72;5004625;28;20092;-67
2022/07/09 01:11:59;;;;;;;11.52;4.00;;;;;;;16.87;76.34;102075.81;5013926;28;20123;-67
2022/07/09 01:14:26;;;;;;;7.28;3.72;;;;;;;16.89;76.55;102065.13;5024109;28;20053;-66
2022/07/09 01:16:58;;;;;;;8.70;3.53;;;;;;;16.87;77.60;102065.22;5025212;28;20421;-66
2022/07/09 01:19:24;;;;;;;;;;;;;;;17.02;76.49;102059.06;5022312;28;20501;-66
2022/07/09 01:21:52;;;;;;;10.88;4.10;;;;;;;17.03;75.82;102062.56;5023189;28;20308;-66
2022/07/09 01:24:19;;;;;;;15.02;3.75;;;;;;;16.78;76.91;102060.44;5024458;28;20077;-66
2022/07/09 01:26:45;;;;;;;6.28;3.50;;;;;;;16.81;77.14;102062.06;5016307;28;20123;-67
2022/07/09 01:29:11;;;;;;;11.27;4.03;;;;;;;16.44;78.49;102056.13;5019780;28;20069;-67
2022/07/09 01:31:38;;;;;;;8.50;3.53;;;;;;;16.22;79.24;102052.94;5024263;28;20099;-66
2022/07/09 01:34:04;;;;;;;6.22;3.53;;;;;;;16.08;79.39;102053.72;5022617;28;20595;-66
2022/07/09 01:36:30;;;;;;;8.13;3.42;;;;;;;16.20;79.11;102041.59;5027614;28;20072;-66
2022/07/09 01:38:58;;;;;;;6.75;3.75;;;;;;;16.25;78.58;102046.66;5022909;28;20139;-66
2022/07/09 01:41:24;;;;;;;10.00;3.58;;;;;;;16.09;78.37;102043.97;5022255;28;20565;-66
2022/07/09 01:43:51;;;;;;;6.07;3.25;;;;;;;16.10;78.43;102044.84;5022023;28;20674;-66
2022/07/09 01:46:17;;;;;;;10.20;3.80;;;;;;;16.39;77.30;102039.66;5016710;28;20502;-66
2022/07/09 01:48:43;;;;;;;6.97;3.75;;;;;;;16.40;76.83;102032.59;5019919;28;20076;-66
2022/07/09 01:51:10;;;;;;;6.80;3.20;;;;;;;16.39;77.09;102037.03;5023161;28;20111;-66
2022/07/09 01:53:37;;;;;;;22.90;3.40;;;;;;;16.55;76.08;102032.56;5022094;28;20093;-66
2022/07/09 01:56:07;;;;;;;6.88;3.40;;;;;;;16.35;76.71;102024.88;5021323;28;20505;-66
2022/07/09 01:58:33;;;;;;;12.90;3.40;;;;;;;16.04;78.05;102028.34;5024989;28;20042;-66
2022/07/09 02:01:00;;;;;;;7.38;3.20;;;;;;;16.38;76.94;102034.44;5023830;28;20405;-66
2022/07/09 02:03:26;;;;;;;9.57;2.95;;;;;;;16.14;77.30;102030.50;5025841;28;20040;-66
2022/07/09 02:05:53;;;;;;;6.57;3.15;;;;;;;15.89;78.82;102023.06;5013452;28;20081;-66
2022/07/09 02:08:19;;;;;;;8.18;3.85;;;;;;;15.98;78.43;102028.69;5005173;28;20107;-66
2022/07/09 02:10:46;;;;;;;9.95;3.45;;;;;;;16.01;78.09;102031.16;5003429;28;20073;-66
2022/07/09 02:13:14;;;;;;;8.30;3.67;;;;;;;15.75;79.29;102039.63;5004363;28;20049;-66
2022/07/09 02:15:40;;;;;;;9.25;3.63;;;;;;;15.87;79.11;102036.34;5019313;28;20112;-66
2022/07/09 02:18:07;;;;;;;12.40;3.85;;;;;;;15.91;78.47;102039.69;5022398;28;20070;-66
2022/07/09 02:20:33;;;;;;;9.65;3.42;;;;;;;16.34;76.63;102027.59;5024299;28;20045;-66
2022/07/09 02:22:59;;;;;;;12.90;3.40;;;;;;;15.99;77.79;102030.41;5024377;28;20070;-68
2022/07/09 02:25:26;;;;;;;9.45;2.97;;;;;;;15.97;77.71;102031.41;5016437;28;20496;-66
2022/07/09 02:27:52;;;;;;;12.18;3.63;;;;;;;15.81;78.11;102028.75;5012217;28;20119;-67
2022/07/09 02:30:20;;;;;;;11.50;3.17;;;;;;;15.75;78.88;102030.84;5021079;28;20045;-67
2022/07/09 02:32:46;;;;;;;7.10;3.28;;;;;;;15.78;78.52;102034.16;5010689;28;20122;-66
2022/07/09 02:35:12;;;;;;;10.23;3.80;;;;;;;15.34;80.25;102030.31;5004844;28;20128;-66
2022/07/09 02:37:39;;;;;;;6.65;3.55;;;;;;;15.47;79.78;102034.91;5005636;28;20099;-66
2022/07/09 02:40:07;;;;;;;11.65;4.30;;;;;;;15.73;78.55;102025.66;5020782;28;20517;-66
2022/07/09 02:42:34;;;;;;;9.27;3.70;;;;;;;15.57;79.08;102030.88;5024992;28;20092;-66
2022/07/09 02:45:01;;;;;;;6.90;2.90;;;;;;;15.67;78.92;102030.41;5023420;28;20099;-66
2022/07/09 02:47:28;;;;;;;10.63;3.42;;;;;;;16.08;77.16;102031.69;5015534;28;20045;-66
2022/07/09 02:49:56;;;;;;;15.43;4.10;;;;;;;16.07;76.42;102033.47;5024313;28;20069;-67
2022/07/09 02:52:22;;;;;;;7.38;3.10;;;;;;;16.01;76.38;102036.47;5024025;28;20045;-66
2022/07/09 02:54:49;;;;;;;8.82;4.00;;;;;;;15.46;79.71;102043.75;5022442;28;20490;-66
2022/07/09 02:57:15;;;;;;;9.45;3.95;;;;;;;15.74;78.17;102035.25;5023778;28;20069;-66
2022/07/09 02:59:41;;;;;;;11.20;4.28;;;;;;;15.47;79.63;102042.84;5008247;28;20046;-66
2022/07/09 03:02:08;;;;;;;11.57;3.92;;;;;;;15.44;79.83;102042.13;5016159;28;20077;-66
2022/07/09 03:04:35;;;;;;;11.48;3.80;;;;;;;15.28;80.13;102035.91;5013180;28;20092;-66
2022/07/09 03:07:02;;;;;;;13.63;4.20;;;;;;;15.31;80.07;102036.59;5003791;28;20124;-66
2022/07/09 03:09:29;;;;;;;13.77;4.07;;;;;;;15.35;79.95;102035.53;5002289;28;20045;-66
2022/07/09 03:11:55;;;;;;;11.68;4.30;;;;;;;15.46;79.82;102034.97;5005190;28;20050;-66
2022/07/09 03:14:22;;;;;;;9.48;4.20;;;;;;;15.31;80.11;102038.41;5006095;28;20469;-66
2022/07/09 03:16:48;;;;;;;14.13;4.22;;;;;;;15.34;80.11;102039.09;5013241;28;20085;-66
2022/07/09 03:19:14;;;;;;;15.23;4.30;;;;;;;15.37;80.15;102035.47;5022424;28;20045;-66
2022/07/09 03:21:42;;;;;;;10.80;4.00;;;;;;;15.44;79.57;102036.84;5015514;28;20050;-66
2022/07/09 03:24:09;;;;;;;14.95;4.78;;;;;;;15.31;80.62;102039.25;5025100;28;20103;-66
2022/07/09 03:26:35;;;;;;;14.85;4.57;;;;;;;15.57;79.97;102041.44;5026714;28;20103;-66
2022/07/09 03:29:01;;;;;;;12.95;4.10;;;;;;;15.74;78.87;102042.38;5011861;28;20555;-66
2022/07/09 03:31:28;;;;;;;9.55;3.90;;;;;;;15.92;78.47;102046.69;5027432;28;20123;-66
2022/07/09 03:33:54;;;;;;;11.23;3.78;;;;;;;16.12;78.25;102040.31;5033669;28;20095;-66
2022/07/09 03:36:20;;;;;;;13.27;3.85;;;;;;;16.16;77.65;102050.66;5044528;28;20491;-66
2022/07/09 03:38:48;;;;;;;11.38;3.65;;;;;;;16.20;77.62;102046.03;5048094;28;20053;-66
2022/07/09 03:41:14;;;;;;;8.45;4.10;;;;;;;16.35;76.83;102046.06;5044758;28;20425;-66
2022/07/09 03:43:41;;;;;;;16.88;4.43;;;;;;;16.31;76.75;102043.66;5045824;28;20102;-66
2022/07/09 03:46:07;;;;;;;13.45;4.38;;;;;;;16.20;77.57;102053.97;5023672;28;20046;-66
2022/07/09 03:48:34;;;;;;;13.93;3.80;;;;;;;16.30;77.52;102048.09;5028766;28;20077;-66
2022/07/09 03:51:00;;;;;;;11.43;4.28;;;;;;;16.22;77.75;102049.47;5021760;28;20132;-66
2022/07/09 03:53:27;;;;;;;10.60;4.20;;;;;;;16.50;76.74;102052.31;5027070;28;20094;-66
2022/07/09 03:55:54;;;;;;;12.93;4.10;;;;;;;16.27;77.37;102053.56;5025676;28;20122;-66
2022/07/09 03:58:21;;;;;;;9.68;4.13;;;;;;;16.51;76.99;102052.22;5026800;28;20053;-66
2022/07/09 04:00:47;;;;;;;10.90;3.72;;;;;;;16.08;78.36;102055.50;5027153;28;20107;-66
2022/07/09 04:03:14;;;;;;;14.23;4.25;;;;;;;15.88;78.43;102053.94;5022601;28;20107;-66
2022/07/09 04:05:41;;;;;;;9.40;3.88;;;;;;;15.85;79.27;102053.25;5026319;28;20555;-66
2022/07/09 04:08:07;;;;;;;13.65;3.85;;;;;;;15.87;78.63;102043.41;5028776;28;20071;-67
2022/07/09 04:10:34;;;;;;;12.52;3.65;;;;;;;16.07;78.09;102041.41;5023658;28;20183;-66
2022/07/09 04:13:01;;;;;;;10.85;3.58;;;;;;;16.20;77.57;102038.09;5025706;28;20138;-66
2022/07/09 04:15:28;;;;;;;13.98;3.60;;;;;;;16.24;77.24;102035.22;5026373;28;20764;-67
2022/07/09 04:17:54;;;;;;;8.57;3.20;;;;;;;16.04;77.94;102035.44;5016143;28;20049;-67
2022/07/09 04:20:21;;;;;;;12.35;4.05;;;;;;;16.08;78.05;102042.25;5026623;28;20041;-67
2022/07/09 04:22:48;;;;;;;14.63;4.00;;;;;;;16.50;76.35;102041.72;5014520;28;20529;-67
2022/07/09 04:25:14;;;;;;;10.18;3.72;;;;;;;16.29;77.46;102034.97;5005994;28;20069;-68
2022/07/09 04:27:40;;;;;;;9.90;3.60;;;;;;;16.37;77.32;102035.41;5011757;28;20049;-68
2022/07/09 04:30:10;;;;;;;13.70;3.65;;;;;;;16.53;76.30;102034.44;5026507;28;20065;-68
2022/07/09 04:32:37;;;;;;;11.75;4.18;;;;;;;16.33;77.14;102020.63;5025407;28;20038;-67
2022/07/09 04:35:04;;;;;;;7.45;3.63;;;;;;;16.66;75.43;102033.81;5023626;28;20664;-67
2022/07/09 04:37:31;;;;;;;13.73;3.60;;;;;;;16.78;75.89;102033.94;5026907;28;20041;-67
2022/07/09 04:39:57;;;;;;;9.13;4.00;;;;;;;16.99;74.43;102031.88;5020165;28;20555;-67
2022/07/09 04:42:23;;;;;;;12.52;3.88;;;;;;;17.24;73.30;102039.22;5026963;28;20065;-67
2022/07/09 04:44:50;;;;;;;12.35;3.85;;;;;;;17.26;73.08;102034.69;5027147;28;20057;-67
2022/07/09 04:47:17;;;;;;;13.55;3.90;;;;;;;17.47;72.63;102034.28;5015839;28;20049;-67
2022/07/09 04:49:43;;;;;;;12.45;3.42;;;;;;;17.44;72.73;102036.28;5025840;28;20053;-67
2022/07/09 04:52:10;;;;;;;10.82;3.38;;;;;;;17.11;73.99;102038.25;5026988;28;20099;-67
2022/07/09 04:54:36;;;;;;;8.30;3.47;;;;;;;16.82;74.93;102037.28;5024390;28;20052;-67
2022/07/09 04:57:03;;;;;;;10.05;3.50;;;;;;;17.00;74.97;102034.41;5025126;28;20065;-67
2022/07/09 04:59:30;;;;;;;14.32;3.63;;;;;;;16.99;73.99;102039.81;5012199;28;20476;-67
2022/07/09 05:01:56;;;;;;;8.05;3.20;;;;;;;17.14;74.21;102033.63;5011763;28;20056;-67
2022/07/09 05:04:24;;;;;;;14.48;5.47;;;;;;;17.30;73.04;102044.16;5020506;28;20562;-68
2022/07/09 05:06:50;;;;;;;14.05;4.30;;;;;;;17.19;73.54;102033.34;5018028;28;20050;-67
2022/07/09 05:09:16;;;;;;;9.55;3.40;;;;;;;17.30;73.91;102026.47;5019054;28;20045;-68
2022/07/09 05:11:43;;;;;;;14.88;4.70;;;;;;;17.25;74.02;102028.56;5022847;28;20077;-68
2022/07/09 05:14:09;;;;;;;14.57;3.50;;;;;;;17.33;73.50;102030.75;5025343;28;20053;-68
2022/07/09 05:16:35;;;;;;;10.43;3.53;;;;;;;17.45;73.52;102028.22;5015509;28;20096;-68
2022/07/09 05:19:02;;;;;;;12.18;3.97;;;;;;;17.65;72.56;102023.53;5025609;28;20046;-68
2022/07/09 05:21:29;;;;;;;13.20;3.88;;;;;;;17.70;73.18;102024.13;5023834;28;20042;-67
2022/07/09 05:23:56;;;;;;;14.23;3.30;;;;;;;17.81;72.82;102032.28;5017646;28;20104;-67
2022/07/09 05:26:22;;;;;;;9.15;3.47;;;;;;;17.91;71.33;102033.41;5026204;28;20115;-67
2022/07/09 05:28:48;;;;;;;11.27;3.20;;;;;;;18.02;70.31;102022.13;5008569;28;20057;-67
2022/07/09 05:31:15;;;;;;;11.18;3.33;;;;;;;18.19;69.76;102016.59;5026440;28;20049;-67
2022/07/09 05:33:41;;;;;;;10.38;2.83;;;;;;;17.62;72.21;102023.72;5026495;28;20053;-67
2022/07/09 05:36:07;;;;;;;8.52;3.30;;;;;;;17.74;70.79;102023.81;5027138;28;20037;-67
2022/07/09 05:38:35;;;;;;;6.93;2.63;;;;;;;17.90;70.62;102023.72;5024543;28;20123;-67
2022/07/09 05:41:01;;;;;;;12.20;2.97;;;;;;;18.11;70.26;102030.34;5026286;28;20498;-67
2022/07/09 05:43:28;;;;;;;10.50;3.20;;;;;;;17.83;71.62;102020.59;5026350;28;20045;-68
2022/07/09 05:45:54;;;;;;;9.93;3.20;;;;;;;17.70;71.59;102024.13;5020595;28;20070;-68
2022/07/09 05:48:20;;;;;;;11.40;3.58;;;;;;;17.62;72.13;102031.69;5022386;28;20110;-68
2022/07/09 05:50:47;;;;;;;13.35;3.38;;;;;;;17.90;72.21;102018.44;5023226;28;20166;-67
2022/07/09 05:53:13;;;;;;;10.50;2.67;;;;;;;17.83;71.63;102025.06;5025423;28;20136;-67
2022/07/09 05:55:41;;;;;;;6.70;2.95;;;;;;;17.96;72.16;102020.69;5023601;28;20045;-67
2022/07/09 05:58:07;;;;;;;12.35;2.88;;;;;;;18.08;70.94;102017.28;5023914;28;20048;-67
2022/07/09 06:00:33;;;;;;;10.35;2.88;;;;;;;18.10;71.03;102025.16;5024153;28;20041;-67
2022/07/09 06:03:00;;;;;;;13.10;3.42;;;;;;;18.52;69.13;102010.94;5023844;28;20106;-67
2022/07/09 06:05:26;;;;;;;8.40;2.80;;;;;;;18.57;69.85;102011.53;5007281;28;20057;-68
2022/07/09 06:07:52;;;;;;;8.30;2.80;;;;;;;18.55;69.29;102013.44;5006572;28;20039;-68
2022/07/09 06:10:19;;;;;;;10.15;2.72;;;;;;;18.75;68.66;102005.00;5003493;28;20104;-68
2022/07/09 06:12:46;;;;;;;9.80;3.42;;;;;;;18.75;67.93;102015.63;5022051;28;20053;-68
2022/07/09 06:15:13;;;;;;;9.05;2.83;;;;;;;18.76;68.33;102017.34;5025053;28;20037;-68
2022/07/09 06:17:39;;;;;;;10.63;3.15;;;;;;;18.41;69.32;102014.28;5013525;28;20041;-68
2022/07/09 06:20:07;;;;;;;11.60;3.55;;;;;;;18.65;69.50;102011.88;5023705;28;20049;-69
2022/07/09 06:22:34;;;;;;;8.00;2.80;;;;;;;18.75;69.76;102018.28;5017061;28;20092;-68
2022/07/09 06:25:00;;;;;;;12.52;2.95;;;;;;;18.77;69.22;102011.09;5023134;28;20049;-68
2022/07/09 06:27:27;;;;;;;9.02;2.85;;;;;;;18.73;69.20;102012.25;5025378;28;20498;-68
2022/07/09 06:29:54;;;;;;;7.90;2.67;;;;;;;18.86;68.41;102006.00;5025461;28;20076;-68
2022/07/09 06:32:21;;;;;;;8.80;3.15;;;;;;;19.18;69.38;102006.50;5024463;28;20049;-68
2022/07/09 06:34:47;;;;;;;9.98;2.55;;;;;;;19.28;68.34;102004.94;5024595;28;20525;-68
2022/07/09 06:37:13;;;;;;;7.25;2.45;;;;;;;19.31;67.45;102006.53;5012167;28;20096;-68
2022/07/09 06:39:45;;;;;;;9.45;2.35;;;;;;;19.34;66.52;102001.84;5003412;28;20042;-68
2022/07/09 06:42:13;;;;;;;9.93;2.75;;;;;;;19.61;66.12;102001.78;5004297;28;20050;-68
2022/07/09 06:44:39;;;;;;;11.02;2.78;;;;;;;19.33;67.18;101997.47;5010605;28;20508;-68
2022/07/09 06:47:07;;;;;;;9.65;2.42;;;;;;;19.72;65.61;102001.91;5023422;28;20126;-69
2022/07/09 06:49:34;;;;;;;8.68;3.47;;;;;;;19.87;65.29;102008.81;5024457;28;20044;-68
2022/07/09 06:52:02;;;;;;;7.00;2.40;;;;;;;19.93;65.35;102003.03;5021229;28;20052;-68
2022/07/09 06:54:28;;;;;;;5.28;2.35;;;;;;;19.54;66.00;101999.66;5005069;28;20125;-68
2022/07/09 06:56:56;;;;;;;8.95;2.40;;;;;;;20.05;65.95;101996.00;5020962;28;20053;-68
2022/07/09 06:59:22;;;;;;;5.70;2.28;;;;;;;20.33;64.86;101994.88;5008386;28;20096;-69
2022/07/09 07:01:48;;;;;;;9.82;2.53;;;;;;;20.11;65.21;101987.56;5004371;28;20108;-69
2022/07/09 07:04:16;;;;;;;12.77;2.30;;;;;;;20.13;65.73;101992.78;5005105;28;20069;-69
2022/07/09 07:06:43;;;;;;;6.93;2.20;;;;;;;20.11;65.01;101987.56;5007055;28;20046;-69
2022/07/09 07:09:09;;;;;;;6.05;2.30;;;;;;;20.30;63.21;101985.31;5004988;28;20053;-69
2022/07/09 07:11:36;;;;;;;6.40;1.98;;;;;;;20.43;63.06;101982.59;5006466;28;20052;-69
2022/07/09 07:14:02;;;;;;;8.60;2.55;;;;;;;20.77;62.15;101975.59;5008113;28;20042;-69
2022/07/09 07:16:28;;;;;;;8.20;2.17;;;;;;;20.88;61.76;101980.97;5018499;28;20046;-69
2022/07/09 07:18:55;;;;;;;5.30;1.90;;;;;;;21.03;60.55;101979.81;5026428;28;20053;-69
2022/07/09 07:21:22;;;;;;;7.07;1.83;;;;;;;20.91;59.77;101980.78;5028440;28;20625;-69
2022/07/09 07:23:49;;;;;;;5.30;2.03;;;;;;;20.94;60.25;101977.88;5018128;28;20041;-69
2022/07/09 07:26:15;;;;;;;10.02;2.13;;;;;;;20.84;60.66;101979.53;5028408;28;20037;-69
2022/07/09 07:28:41;;;;;;;8.18;2.45;;;;;;;20.69;60.28;101970.03;5028170;28;20477;-69
2022/07/09 07:31:08;;;;;;;9.23;2.75;;;;;;;20.28;61.56;101970.41;5028954;28;20049;-69
2022/07/09 07:33:34;;;;;;;6.55;2.50;;;;;;;20.38;62.90;101966.09;5027931;28;20045;-69
2022/07/09 07:36:00;;;;;;;5.75;2.67;;;;;;;20.50;62.75;101972.34;5027546;28;20104;-71
2022/07/09 07:38:28;;;;;;;6.75;2.63;;;;;;;20.75;62.25;101974.88;5030077;28;20501;-70
2022/07/09 07:40:54;;;;;;;8.00;2.53;;;;;;;20.60;62.84;101976.00;5044922;28;20049;-70
2022/07/09 07:43:21;;;;;;;5.10;2.13;;;;;;;20.85;61.21;101973.22;5027230;28;20076;-71
2022/07/09 07:45:47;;;;;;;8.80;2.90;;;;;;;20.72;63.23;101975.13;5020883;28;20466;-71
2022/07/09 07:48:14;;;;;;;5.97;2.47;;;;;;;20.93;62.14;101972.63;5022141;28;20045;-70
2022/07/09 07:50:40;;;;;;;8.65;2.28;;;;;;;20.68;62.40;101970.97;5026832;28;20053;-70
2022/07/09 07:53:07;;;;;;;5.30;2.10;;;;;;;20.75;62.64;101974.88;5017627;28;20042;-70
2022/07/09 07:55:34;;;;;;;9.88;2.30;;;;;;;20.69;61.94;101972.69;5028428;28;20049;-70
2022/07/09 07:58:01;;;;;;;5.88;2.13;;;;;;;21.11;61.35;101976.59;5028531;28;20476;-70
2022/07/09 08:00:27;;;;;;;8.93;2.78;;;;;;;21.21;60.46;101975.78;5024813;28;20100;-70
2022/07/09 08:02:54;;;;;;;5.78;2.20;;;;;;;21.53;59.92;101973.31;5027444;28;20046;-70
2022/07/09 08:05:21;;;;;;;9.35;2.33;;;;;;;21.61;60.26;101967.38;5028325;28;20394;-71
2022/07/09 08:07:47;;;;;;;5.47;2.13;;;;;;;22.24;58.63;101964.94;5023143;28;20045;-71
2022/07/09 08:10:13;;;;;;;7.00;2.35;;;;;;;22.29;58.39;101957.38;5025254;28;20054;-71
2022/07/09 08:12:41;;;;;;;8.15;2.53;;;;;;;22.92;56.83;101950.34;5026479;28;20048;-72
2022/07/09 08:15:08;;;;;;;8.00;2.85;;;;;;;23.15;54.98;101951.94;5017575;28;20096;-71
2022/07/09 08:17:34;;;;;;;5.72;2.53;;;;;;;23.24;53.87;101950.31;5019244;28;20042;-71
2022/07/09 08:20:01;;;;;;;9.15;2.70;;;;;;;22.72;55.98;101951.19;5022675;28;20042;-71
2022/07/09 08:22:27;;;;;;;8.73;3.50;;;;;;;22.59;55.77;101950.47;5012885;28;20461;-71
2022/07/09 08:24:54;;;;;;;9.60;3.13;;;;;;;22.31;57.21;101946.56;5025108;28;20096;-71
2022/07/09 08:27:20;;;;;;;8.35;3.13;;;;;;;22.46;58.37;101942.63;5020067;28;20135;-71
2022/07/09 08:29:49;;;;;;;9.05;3.13;;;;;;;22.70;55.54;101937.09;5025256;28;20049;-71
2022/07/09 08:32:15;;;;;;;9.80;3.58;;;;;;;22.06;58.78;101941.53;5027446;28;20433;-71
2022/07/09 08:34:42;;;;;;;9.25;3.45;;;;;;;22.49;59.34;101936.19;5026744;28;20464;-71
2022/07/09 08:37:08;;;;;;;4.78;2.75;;;;;;;22.88;56.91;101935.53;5025154;28;20409;-71
2022/07/09 08:39:34;;;;;;;7.72;2.65;;;;;;;22.68;57.63;101936.38;5027048;28;20476;-71
2022/07/09 08:42:01;;;;;;;9.32;2.88;;;;;;;23.15;55.82;101935.88;5026545;28;20078;-71
2022/07/09 08:44:30;;;;;;;5.07;3.10;;;;;;;23.47;58.40;101933.09;5021714;28;20460;-71
2022/07/09 08:46:58;;;;;;;6.78;2.22;;;;;;;23.57;53.48;101930.50;5016163;28;20128;-71
2022/07/09 08:49:26;;;;;;;6.70;2.60;;;;;;;23.32;54.87;101923.69;5014282;28;20053;-71
2022/07/09 08:51:54;;;;;;;6.97;2.58;;;;;;;23.02;55.81;101929.03;5022248;28;20045;-71
2022/07/09 08:54:21;;;;;;;5.22;2.65;;;;;;;23.10;55.79;101921.19;5025831;28;20463;-71
2022/07/09 08:56:48;;;;;;;6.07;2.50;;;;;;;23.09;54.89;101930.19;5026092;28;20073;-71
2022/07/09 08:59:14;;;;;;;7.53;2.53;;;;;;;23.28;55.03;101920.44;5020673;28;20104;-71
2022/07/09 09:01:40;;;;;;;6.15;2.50;;;;;;;22.88;55.89;101921.31;5027295;28;20092;-71
2022/07/09 09:04:09;;;;;;;5.25;2.40;;;;;;;22.63;56.52;101923.34;5025890;28;20046;-71
2022/07/09 09:06:37;;;;;;;10.18;2.47;;;;;;;;;;5024304;28;20053;-71
2022/07/09 09:09:03;;;;;;;7.28;2.42;;;;;;;22.75;56.86;101910.81;5025130;28;20094;-72
2022/07/09 09:11:31;;;;;;;6.40;2.50;;;;;;;22.83;57.63;101912.84;5025354;28;20041;-72
2022/07/09 09:13:57;;;;;;;4.32;1.65;;;;;;;22.72;56.43;101911.09;5025106;28;20064;-71
2022/07/09 09:16:24;;;;;;;8.02;2.33;;;;;;;22.49;56.36;101904.94;5009885;28;20107;-71
2022/07/09 09:18:52;;;;;;;7.72;2.25;;;;;;;22.76;55.84;101902.66;5003792;28;20464;-71
2022/07/09 09:21:22;;;;;;;5.25;2.00;;;;;;;22.97;53.42;101902.66;5016682;28;20041;-71
2022/07/09 09:23:50;;;;;;;5.63;1.95;;;;;;;22.73;54.43;101910.09;5018950;28;20049;-71
2022/07/09 09:26:18;;;;;;;6.80;2.13;;;;;;;22.65;54.80;101909.88;5028013;28;20552;-71
2022/07/09 09:28:52;;;;;;;4.75;1.60;;;;;;;22.31;55.36;101912.69;5035455;28;20076;-71
2022/07/09 09:31:23;;;;;;;6.25;1.70;;;;;;;22.31;56.27;101906.47;5023725;28;20521;-71
2022/07/09 09:33:50;;;;;;;5.47;1.92;;;;;;;22.25;56.85;101907.81;5024553;28;20045;-71
2022/07/09 09:36:30;;;;;;;5.85;1.77;;;;;;;22.35;56.28;101901.72;5024204;28;20076;-71
2022/07/09 09:39:08;;;;;;;6.35;1.80;;;;;;;22.27;56.71;101900.53;5021617;28;20297;-71
2022/07/09 09:41:34;;;;;;;5.75;1.77;;;;;;;22.70;57.12;101892.47;5025623;28;20045;-71
2022/07/09 09:44:05;;;;;;;6.43;1.90;;;;;;;23.29;55.28;101886.50;5018990;28;20072;-71
2022/07/09 09:46:33;;;;;;;3.83;1.80;;;;;;;23.23;55.07;101884.38;5020660;28;20092;-71
2022/07/09 09:48:59;;;;;;;4.03;1.80;;;;;;;23.19;54.09;101878.44;5024277;28;20071;-71
2022/07/09 09:51:31;;;;;;;4.30;2.45;;;;;;;23.16;52.23;101880.53;5024926;28;20103;-71
2022/07/09 09:53:59;;;;;;;3.50;1.80;;;;;;;22.69;56.85;101887.25;5017899;28;20045;-71
2022/07/09 09:56:26;;;;;;;6.97;2.10;;;;;;;23.07;54.20;101881.31;5024711;28;20068;-71
2022/07/09 09:58:52;;;;;;;4.22;1.77;;;;;;;23.39;54.76;101878.53;5024040;28;20123;-71
2022/07/09 10:01:19;;;;;;;3.50;1.80;;;;;;;23.28;54.32;101872.25;5024442;28;20107;-71
2022/07/09 10:03:47;;;;;;;6.72;2.08;;;;;;;23.42;55.84;101873.78;5023689;28;20079;-71
2022/07/09 10:06:14;;;;;;;8.18;2.00;;;;;;;23.24;54.44;101873.50;5023675;28;20099;-70
2022/07/09 10:08:41;;;;;;;3.67;1.60;;;;;;;23.12;54.09;101874.59;5011871;28;20045;-70
2022/07/09 10:11:08;;;;;;;2.58;1.38;;;;;;;22.92;53.81;101869.25;5008785;28;20143;-70
2022/07/09 10:13:38;;;;;;;3.35;1.85;;;;;;;22.25;55.37;101869.56;5023638;28;20068;-70
2022/07/09 10:16:05;;;;;;;5.45;1.90;;;;;;;22.63;54.55;101875.22;5022343;28;20045;-70
2022/07/09 10:18:31;;;;;;;4.80;1.80;;;;;;;22.38;54.93;101872.94;5024092;28;20045;-70
2022/07/09 10:20:58;;;;;;;4.25;1.58;;;;;;;22.36;55.10;101874.03;5024988;28;20065;-68
2022/07/09 10:23:26;;;;;;;3.85;1.80;;;;;;;22.13;56.39;101866.09;5020676;28;20046;-68
2022/07/09 10:25:55;;;;;;;5.63;1.50;;;;;;;22.27;56.28;101867.63;5024992;28;20477;-68
2022/07/09 10:28:24;;;;;;;8.93;1.80;;;;;;;22.55;57.99;101866.16;5026935;28;20065;-68
2022/07/09 10:30:53;;;;;;;12.70;3.03;;;;;;;23.11;56.30;101864.88;5024742;28;20049;-69
2022/07/09 10:33:23;;;;;;;6.30;1.70;;;;;;;22.80;54.10;101850.59;5023886;28;20045;-69
2022/07/09 10:35:50;;;;;;;4.15;1.60;;;;;;;23.17;53.36;101850.13;5024806;28;20076;-69
2022/07/09 10:38:17;;;;;;;6.40;2.17;;;;;;;22.87;55.70;101855.44;5025368;28;20052;-69
2022/07/09 10:40:46;;;;;;;10.85;2.60;;;;;;;23.12;55.45;101863.03;5024692;28;20050;-69
2022/07/09 10:43:15;;;;;;;5.13;1.77;;;;;;;22.89;55.63;101856.16;5023901;28;20049;-70
2022/07/09 10:45:43;;;;;;;3.78;1.40;;;;;;;23.59;57.28;101853.53;5021875;28;20042;-70
2022/07/09 10:48:11;;;;;;;9.23;2.00;;;;;;;23.82;53.48;101838.94;5020388;28;20390;-70
2022/07/09 10:50:39;;;;;;;7.85;2.70;;;;;;;24.14;53.65;101850.31;5022157;28;20076;-70
2022/07/09 10:53:06;;;;;;;5.13;2.30;;;;;;;24.27;51.36;101849.19;5011610;28;20069;-69
2022/07/09 10:55:32;;;;;;;29.05;7.53;;;;;;;23.89;55.00;101845.44;5007238;28;20053;-70
2022/07/09 10:57:59;;;;;;;13.18;2.40;;;;;;;24.31;52.55;101840.72;5021663;28;20050;-70
2022/07/09 11:00:29;;;;;;;3.85;1.60;;;;;;;24.14;53.14;101834.22;5023081;28;20048;-70
2022/07/09 11:02:57;;;;;;;3.65;2.38;;;;;;;24.46;52.06;101838.47;5025019;28;20111;-70
2022/07/09 11:05:24;;;;;;;4.13;1.30;;;;;;;24.11;52.47;101825.59;5023116;28;20045;-70
2022/07/09 11:08:02;;;;;;;4.53;1.55;;;;;;;24.07;52.34;101818.81;5023175;28;20059;-70
2022/07/09 11:10:29;;;;;;;4.55;1.70;;;;;;;23.93;52.20;101825.44;5022022;28;20068;-70
2022/07/09 11:12:58;;;;;;;1.95;1.40;;;;;;;23.67;53.17;101821.59;5024895;28;20046;-70
2022/07/09 11:15:27;;;;;;;5.65;1.70;;;;;;;23.80;52.98;101821.34;5022856;28;20060;-70
2022/07/09 11:17:58;;;;;;;2.67;1.20;;;;;;;24.33;52.98;101822.66;5020358;28;20053;-70
2022/07/09 11:20:25;;;;;;;4.88;1.67;;;;;;;24.20;51.90;101816.75;5023352;28;20099;-70
2022/07/09 11:22:51;;;;;;;3.45;1.40;;;;;;;24.13;52.32;101805.72;5023933;28;20045;-70